Time;durP1;ratioP1;P1;durP2;ratioP2;P2;SDS_P1;SDS_P2;PMS_P1;PMS_P2;Temp;Humidity;BMP_temperature;BMP_pressure;BME280_temperature;BME280_humidity;BME280_pressure;Samples;Min_cycle;Max_cycle;Signal;HPM_P1;HPM_P2
2023/08/03 00:00:14;;;;;;;5.85;4.90;;;24.40;99.90;;;;;;5082548;28;20210;-77
2023/08/03 00:02:41;;;;;;;7.07;5.15;;;24.40;99.90;;;;;;5080227;28;20205;-77
2023/08/03 00:05:08;;;;;;;6.88;4.90;;;24.40;99.90;;;;;;5085941;28;20580;-78
2023/08/03 00:07:35;;;;;;;5.45;4.75;;;24.40;99.90;;;;;;5081497;28;20271;-78
2023/08/03 00:10:03;;;;;;;6.82;4.80;;;24.50;99.90;;;;;;5081377;28;20200;-77
2023/08/03 00:12:30;;;;;;;7.72;5.20;;;24.50;99.90;;;;;;5081988;28;20489;-77
2023/08/03 00:14:58;;;;;;;8.05;4.85;;;24.40;99.90;;;;;;5083615;28;20892;-77
2023/08/03 00:17:25;;;;;;;8.60;5.32;;;24.40;99.90;;;;;;5081660;28;20630;-77
2023/08/03 00:19:52;;;;;;;8.13;5.32;;;24.40;99.90;;;;;;5083758;28;20201;-78
2023/08/03 00:22:19;;;;;;;5.40;4.90;;;24.40;99.90;;;;;;5083112;28;20197;-77
2023/08/03 00:24:46;;;;;;;5.00;4.50;;;24.40;99.90;;;;;;5082789;28;20624;-78
2023/08/03 00:27:13;;;;;;;8.93;4.60;;;24.50;99.90;;;;;;5082965;28;20213;-78
2023/08/03 00:29:40;;;;;;;6.82;5.25;;;24.50;99.90;;;;;;5086110;28;20945;-77
2023/08/03 00:32:08;;;;;;;7.40;4.90;;;24.50;99.90;;;;;;5084295;28;20237;-77
2023/08/03 00:34:35;;;;;;;6.55;4.93;;;24.50;99.90;;;;;;5086989;28;20631;-77
2023/08/03 00:37:02;;;;;;;7.15;4.80;;;24.50;99.90;;;;;;5087192;28;20217;-78
2023/08/03 00:39:29;;;;;;;5.78;5.05;;;24.50;99.90;;;;;;5091148;28;20566;-77
2023/08/03 00:41:56;;;;;;;6.10;4.40;;;24.50;99.90;;;;;;5081235;28;20233;-79
2023/08/03 00:44:23;;;;;;;7.40;4.70;;;24.50;99.90;;;;;;5081467;28;20193;-78
2023/08/03 00:46:51;;;;;;;6.65;4.53;;;24.50;99.90;;;;;;5081163;28;20230;-77
2023/08/03 00:49:20;;;;;;;4.82;4.43;;;24.50;99.90;;;;;;5083431;28;20229;-77
2023/08/03 00:51:47;;;;;;;6.43;5.35;;;24.40;99.90;;;;;;5085996;28;20260;-74
2023/08/03 00:54:13;;;;;;;8.40;5.38;;;24.40;99.90;;;;;;5084892;28;20228;-77
2023/08/03 00:56:41;;;;;;;8.82;5.07;;;24.40;99.90;;;;;;5075042;28;20253;-78
2023/08/03 00:59:10;;;;;;;6.97;5.07;;;24.40;99.90;;;;;;5086131;28;20293;-76
2023/08/03 01:01:38;;;;;;;4.95;4.32;;;24.30;99.90;;;;;;5082533;28;20682;-77
2023/08/03 01:04:05;;;;;;;6.63;5.07;;;24.30;99.90;;;;;;5075587;28;20288;-78
2023/08/03 01:06:33;;;;;;;7.38;5.57;;;24.20;99.90;;;;;;5079513;28;20307;-77
2023/08/03 01:09:00;;;;;;;6.50;5.15;;;24.20;99.90;;;;;;5086664;28;20233;-76
2023/08/03 01:11:28;;;;;;;6.22;4.82;;;24.20;99.90;;;;;;5082858;28;20283;-78
2023/08/03 01:13:56;;;;;;;6.85;5.43;;;24.10;99.90;;;;;;5081697;28;20221;-77
2023/08/03 01:16:24;;;;;;;5.60;5.10;;;24.10;99.90;;;;;;5080481;28;20213;-76
2023/08/03 01:18:51;;;;;;;6.88;5.03;;;24.10;99.90;;;;;;5084322;28;20284;-78
2023/08/03 01:21:20;;;;;;;8.57;5.13;;;24.10;99.90;;;;;;5079500;28;20198;-78
2023/08/03 01:23:48;;;;;;;5.68;4.53;;;24.10;99.90;;;;;;5077317;28;20284;-77
2023/08/03 01:26:15;;;;;;;5.50;4.88;;;24.10;99.90;;;;;;5083655;28;20217;-77
2023/08/03 01:28:42;;;;;;;7.78;5.00;;;24.10;99.90;;;;;;5082011;28;20193;-76
2023/08/03 01:31:10;;;;;;;5.35;4.60;;;24.10;99.90;;;;;;5077489;28;20620;-78
2023/08/03 01:33:37;;;;;;;5.85;4.85;;;24.10;99.90;;;;;;5079916;28;20209;-77
2023/08/03 01:36:05;;;;;;;5.47;4.40;;;24.20;99.90;;;;;;5075627;28;20304;-78
2023/08/03 01:38:32;;;;;;;6.47;5.13;;;24.20;99.90;;;;;;5078423;28;20731;-77
2023/08/03 01:41:00;;;;;;;6.55;4.93;;;24.20;99.90;;;;;;5080915;28;20242;-77
2023/08/03 01:43:27;;;;;;;8.38;4.80;;;24.20;99.90;;;;;;5078799;28;20735;-78
2023/08/03 01:45:54;;;;;;;6.50;4.80;;;24.20;99.90;;;;;;5074275;28;20954;-77
2023/08/03 01:48:21;;;;;;;6.15;4.55;;;24.20;99.90;;;;;;5079162;28;20210;-78
2023/08/03 01:50:48;;;;;;;7.63;4.80;;;24.20;99.90;;;;;;5079252;28;20248;-77
2023/08/03 01:53:16;;;;;;;7.35;4.75;;;24.20;99.90;;;;;;5083271;28;20209;-78
2023/08/03 01:55:45;;;;;;;5.63;4.50;;;24.20;99.90;;;;;;5074670;28;20204;-77
2023/08/03 01:58:13;;;;;;;6.65;4.90;;;24.20;99.90;;;;;;5080531;28;20222;-79
2023/08/03 02:00:40;;;;;;;7.65;5.30;;;24.20;99.90;;;;;;5077722;28;20252;-79
2023/08/03 02:03:07;;;;;;;6.65;4.90;;;24.20;99.90;;;;;;5080417;28;20201;-78
2023/08/03 02:05:34;;;;;;;6.95;4.95;;;24.20;99.90;;;;;;5079090;28;20860;-77
2023/08/03 02:08:01;;;;;;;8.07;5.00;;;24.20;99.90;;;;;;5079564;28;20217;-77
2023/08/03 02:10:28;;;;;;;8.88;4.70;;;24.20;99.90;;;;;;5080533;28;20201;-77
2023/08/03 02:12:55;;;;;;;9.00;4.47;;;24.10;99.90;;;;;;5078996;28;20923;-77
2023/08/03 02:15:23;;;;;;;8.95;4.88;;;24.10;99.90;;;;;;5081714;28;20294;-78
2023/08/03 02:17:50;;;;;;;6.63;4.90;;;24.10;99.90;;;;;;5079634;28;20229;-78
2023/08/03 02:20:17;;;;;;;5.35;4.50;;;24.10;99.90;;;;;;5082326;28;20783;-78
2023/08/03 02:22:44;;;;;;;6.03;4.60;;;24.00;99.90;;;;;;5079307;28;20248;-77
2023/08/03 02:25:11;;;;;;;11.10;5.20;;;24.00;99.90;;;;;;5085017;28;20683;-77
2023/08/03 02:27:38;;;;;;;7.95;4.80;;;24.00;99.90;;;;;;5080390;28;20282;-78
2023/08/03 02:30:06;;;;;;;5.75;5.00;;;24.00;99.90;;;;;;5083571;28;20258;-79
2023/08/03 02:32:34;;;;;;;5.45;4.40;;;24.00;99.90;;;;;;5081870;28;20217;-77
2023/08/03 02:35:01;;;;;;;7.47;4.65;;;24.00;99.90;;;;;;5086302;28;20205;-79
2023/08/03 02:37:28;;;;;;;9.45;5.00;;;23.90;99.90;;;;;;5083678;28;20716;-78
2023/08/03 02:39:55;;;;;;;9.98;4.90;;;23.90;99.90;;;;;;5080217;28;20206;-77
2023/08/03 02:42:22;;;;;;;5.95;4.57;;;24.00;99.90;;;;;;5084725;28;20240;-77
2023/08/03 02:44:49;;;;;;;8.80;5.75;;;24.00;99.90;;;;;;5082467;28;20251;-78
2023/08/03 02:47:16;;;;;;;5.40;4.72;;;24.00;99.90;;;;;;5089267;28;20757;-77
2023/08/03 02:49:44;;;;;;;4.93;4.05;;;24.00;99.90;;;;;;5082335;28;20226;-77
2023/08/03 02:52:12;;;;;;;7.28;5.15;;;23.90;99.90;;;;;;5085142;28;20299;-77
2023/08/03 02:54:39;;;;;;;6.78;4.43;;;23.90;99.90;;;;;;5082231;28;20610;-77
2023/08/03 02:57:06;;;;;;;5.30;4.20;;;23.90;99.90;;;;;;5088745;28;20278;-77
2023/08/03 02:59:33;;;;;;;8.10;4.57;;;23.90;99.90;;;;;;5084020;28;20201;-79
2023/08/03 03:02:00;;;;;;;7.03;4.43;;;23.80;99.90;;;;;;5087461;28;20225;-78
2023/08/03 03:04:27;;;;;;;5.25;4.40;;;23.80;99.90;;;;;;5088048;28;20234;-79
2023/08/03 03:06:55;;;;;;;6.47;4.40;;;23.80;99.90;;;;;;5089269;28;20286;-77
2023/08/03 03:09:22;;;;;;;5.10;4.32;;;23.80;99.90;;;;;;5081469;28;20237;-78
2023/08/03 03:11:51;;;;;;;6.10;4.10;;;23.80;99.90;;;;;;5087735;28;20664;-79
2023/08/03 03:14:18;;;;;;;4.38;3.78;;;23.80;99.90;;;;;;5082352;28;20206;-77
2023/08/03 03:16:45;;;;;;;5.55;4.03;;;23.80;99.90;;;;;;5087000;28;20218;-77
2023/08/03 03:19:12;;;;;;;6.57;4.40;;;23.80;99.90;;;;;;5085527;28;20241;-80
2023/08/03 03:21:38;;;;;;;6.35;4.30;;;23.80;99.90;;;;;;5085144;28;20644;-77
2023/08/03 03:24:07;;;;;;;9.00;4.18;;;23.80;99.90;;;;;;5083378;28;20202;-78
2023/08/03 03:26:34;;;;;;;6.93;3.90;;;23.80;99.90;;;;;;5087262;28;20248;-77
2023/08/03 03:29:01;;;;;;;7.70;4.70;;;23.80;99.90;;;;;;5087105;28;20700;-78
2023/08/03 03:31:28;;;;;;;7.38;4.07;;;23.90;99.90;;;;;;5077162;28;20205;-78
2023/08/03 03:33:55;;;;;;;6.30;4.63;;;23.80;99.90;;;;;;5084673;28;20748;-78
2023/08/03 03:36:22;;;;;;;6.90;4.50;;;23.80;99.90;;;;;;5082790;28;21306;-79
2023/08/03 03:38:49;;;;;;;9.13;4.80;;;23.80;99.90;;;;;;5080733;28;20230;-78
2023/08/03 03:41:17;;;;;;;6.25;4.10;;;23.80;99.90;;;;;;5081450;28;20346;-78
2023/08/03 03:43:44;;;;;;;7.38;4.43;;;23.80;99.90;;;;;;5079843;28;20224;-78
2023/08/03 03:46:11;;;;;;;9.38;4.60;;;23.90;99.90;;;;;;5085455;28;20467;-77
2023/08/03 03:48:38;;;;;;;8.55;4.60;;;23.90;99.90;;;;;;5080698;28;20237;-77
2023/08/03 03:51:05;;;;;;;9.55;4.40;;;23.90;99.90;;;;;;5087067;28;20232;-78
2023/08/03 03:53:32;;;;;;;7.57;4.18;;;23.80;99.90;;;;;;5085758;28;20587;-79
2023/08/03 03:55:59;;;;;;;5.78;3.97;;;23.80;99.90;;;;;;5081234;28;20227;-77
2023/08/03 03:58:27;;;;;;;7.35;4.03;;;23.90;99.90;;;;;;5084814;28;20233;-78
2023/08/03 04:00:55;;;;;;;9.02;4.35;;;23.90;99.90;;;;;;5079188;28;20197;-77
2023/08/03 04:03:24;;;;;;;12.23;4.80;;;23.90;99.90;;;;;;5085003;28;21212;-77
2023/08/03 04:05:50;;;;;;;5.32;3.55;;;23.80;99.90;;;;;;5083200;28;20313;-77
2023/08/03 04:08:17;;;;;;;7.57;4.47;;;23.80;99.90;;;;;;5081454;28;20574;-77
2023/08/03 04:10:44;;;;;;;10.07;4.65;;;23.80;99.90;;;;;;5082354;28;20198;-78
2023/08/03 04:13:11;;;;;;;7.00;4.43;;;23.80;99.90;;;;;;5083748;28;20317;-77
2023/08/03 04:15:39;;;;;;;6.35;3.97;;;23.80;99.90;;;;;;5080371;28;20229;-78
2023/08/03 04:18:06;;;;;;;7.60;4.28;;;23.80;99.90;;;;;;5087083;28;20217;-78
2023/08/03 04:20:33;;;;;;;6.65;4.18;;;23.80;99.90;;;;;;5080518;28;20225;-77
2023/08/03 04:23:00;;;;;;;6.50;4.43;;;23.80;99.90;;;;;;5079537;28;20185;-78
2023/08/03 04:25:27;;;;;;;5.85;4.05;;;23.80;99.90;;;;;;5082367;28;20922;-77
2023/08/03 04:27:54;;;;;;;7.03;4.40;;;23.80;99.90;;;;;;5082997;28;20298;-77
2023/08/03 04:30:21;;;;;;;6.47;4.20;;;23.80;99.90;;;;;;5088071;28;20239;-77
2023/08/03 04:32:49;;;;;;;6.35;4.38;;;23.80;99.90;;;;;;5080810;28;20725;-77
2023/08/03 04:35:16;;;;;;;7.78;4.43;;;23.70;99.90;;;;;;5087115;28;20206;-77
2023/08/03 04:37:43;;;;;;;5.10;3.70;;;23.80;99.90;;;;;;5080621;28;20264;-78
2023/08/03 04:40:10;;;;;;;8.52;4.75;;;23.80;99.90;;;;;;5085918;28;20237;-77
2023/08/03 04:42:37;;;;;;;6.90;4.60;;;23.80;99.90;;;;;;5079594;28;20198;-79
2023/08/03 04:45:04;;;;;;;6.78;4.10;;;23.70;99.90;;;;;;5085100;28;20254;-78
2023/08/03 04:47:31;;;;;;;6.40;4.00;;;23.70;99.90;;;;;;5084300;28;20278;-78
2023/08/03 04:50:00;;;;;;;6.93;4.30;;;23.70;99.90;;;;;;5082074;28;20202;-78
2023/08/03 04:52:27;;;;;;;7.10;4.05;;;23.70;99.90;;;;;;5085547;28;20308;-77
2023/08/03 04:54:53;;;;;;;7.07;4.10;;;23.70;99.90;;;;;;5084939;28;20237;-77
2023/08/03 04:57:20;;;;;;;9.73;4.80;;;23.70;99.90;;;;;;5080455;28;20218;-77
2023/08/03 04:59:47;;;;;;;6.55;4.45;;;23.60;99.90;;;;;;5082603;28;20231;-78
2023/08/03 05:02:14;;;;;;;7.55;4.20;;;23.70;99.90;;;;;;5094815;28;20247;-77
2023/08/03 05:04:41;;;;;;;7.50;4.57;;;23.80;99.90;;;;;;5079726;28;20285;-78
2023/08/03 05:07:09;;;;;;;7.78;4.63;;;23.90;99.90;;;;;;5086408;28;20217;-78
2023/08/03 05:09:36;;;;;;;7.20;4.18;;;23.90;99.90;;;;;;5084667;28;20233;-78
2023/08/03 05:12:03;;;;;;;7.43;4.00;;;24.00;99.90;;;;;;5079991;28;20290;-78
2023/08/03 05:14:30;;;;;;;10.48;4.65;;;24.20;99.90;;;;;;5087797;28;20278;-77
2023/08/03 05:16:57;;;;;;;6.90;4.20;;;24.20;99.90;;;;;;5080165;28;20729;-78
2023/08/03 05:19:24;;;;;;;12.43;4.10;;;24.30;99.90;;;;;;5084328;28;20822;-77
2023/08/03 05:21:51;;;;;;;4.57;3.83;;;24.30;99.90;;;;;;5087388;28;20233;-77
2023/08/03 05:24:19;;;;;;;6.18;3.60;;;24.40;99.90;;;;;;5084057;28;20587;-78
2023/08/03 05:26:46;;;;;;;6.78;4.35;;;24.50;99.90;;;;;;5077833;28;20226;-77
2023/08/03 05:29:14;;;;;;;7.05;3.92;;;24.60;99.90;;;;;;5082003;28;20629;-78
2023/08/03 05:31:40;;;;;;;6.43;3.80;;;24.70;99.90;;;;;;5083832;28;20201;-77
2023/08/03 05:34:07;;;;;;;6.05;4.07;;;24.80;99.90;;;;;;5080530;28;20214;-77
2023/08/03 05:36:34;;;;;;;6.93;4.47;;;24.90;99.90;;;;;;5088958;28;20766;-78
2023/08/03 05:39:01;;;;;;;7.38;4.32;;;24.80;99.90;;;;;;5085721;28;20202;-79
2023/08/03 05:41:30;;;;;;;7.03;4.07;;;24.50;99.90;;;;;;5085432;28;20202;-77
2023/08/03 05:43:57;;;;;;;5.75;4.20;;;24.40;99.90;;;;;;5085999;28;20228;-77
2023/08/03 05:46:24;;;;;;;6.32;3.97;;;24.30;99.90;;;;;;5086599;28;20274;-79
2023/08/03 05:48:52;;;;;;;7.18;4.30;;;24.20;99.90;;;;;;5084894;28;20224;-77
2023/08/03 05:51:25;;;;;;;6.70;4.18;;;24.30;99.90;;;;;;5086234;28;20214;-78
2023/08/03 05:53:52;;;;;;;5.03;3.55;;;24.60;99.90;;;;;;5091641;28;20218;-77
2023/08/03 05:56:21;;;;;;;8.10;4.45;;;24.80;99.90;;;;;;5088628;28;20217;-77
2023/08/03 05:58:50;;;;;;;6.90;4.53;;;24.90;99.90;;;;;;5085687;28;20197;-77
2023/08/03 06:01:20;;;;;;;7.60;3.95;;;25.00;99.90;;;;;;5091470;28;20197;-78
2023/08/03 06:03:47;;;;;;;8.32;4.47;;;25.20;99.90;;;;;;5084633;28;20201;-78
2023/08/03 06:06:18;;;;;;;7.65;4.50;;;25.30;99.90;;;;;;5087570;28;20779;-79
2023/08/03 06:08:48;;;;;;;9.30;4.55;;;25.30;99.90;;;;;;5089021;28;20279;-78
2023/08/03 06:11:17;;;;;;;5.70;3.97;;;25.40;99.90;;;;;;5087081;28;20281;-77
2023/08/03 06:13:45;;;;;;;6.15;4.20;;;25.50;99.90;;;;;;5090281;28;20213;-77
2023/08/03 06:16:14;;;;;;;10.00;4.60;;;25.50;99.90;;;;;;5088769;28;20232;-78
2023/08/03 06:18:48;;;;;;;12.60;4.70;;;25.40;99.90;;;;;;5092185;28;20224;-78
2023/08/03 06:21:16;;;;;;;6.70;4.65;;;25.50;99.90;;;;;;5087447;28;20284;-77
2023/08/03 06:23:45;;;;;;;8.32;4.22;;;25.60;99.90;;;;;;5088273;28;20236;-77
2023/08/03 06:26:13;;;;;;;6.40;4.10;;;25.70;99.90;;;;;;5090759;28;20520;-77
2023/08/03 06:28:41;;;;;;;6.18;4.20;;;25.80;99.90;;;;;;5091665;28;20197;-80
2023/08/03 06:31:15;;;;;;;7.25;4.28;;;25.80;99.90;;;;;;5083920;28;20198;-78
2023/08/03 06:33:43;;;;;;;5.07;3.85;;;25.90;99.90;;;;;;5085441;28;20633;-79
2023/08/03 06:36:13;;;;;;;5.35;3.70;;;25.50;99.90;;;;;;5085994;28;20209;-79
2023/08/03 06:38:41;;;;;;;9.15;4.45;;;25.20;99.90;;;;;;5089051;28;20276;-77
2023/08/03 06:41:08;;;;;;;6.40;4.10;;;25.10;99.90;;;;;;5085766;28;20194;-78
2023/08/03 06:43:35;;;;;;;5.00;3.67;;;25.40;99.90;;;;;;5084160;28;20193;-77
2023/08/03 06:46:02;;;;;;;5.47;4.22;;;25.70;99.90;;;;;;5089221;28;20605;-78
2023/08/03 06:48:31;;;;;;;6.13;3.67;;;25.80;99.90;;;;;;5084062;28;20822;-77
2023/08/03 06:50:58;;;;;;;8.50;3.95;;;26.10;99.90;;;;;;5086585;28;20209;-78
2023/08/03 06:53:25;;;;;;;6.05;4.05;;;26.20;99.90;;;;;;5081782;28;20249;-78
2023/08/03 06:55:52;;;;;;;7.63;4.30;;;26.20;99.90;;;;;;5088508;28;20276;-77
2023/08/03 06:58:19;;;;;;;5.60;3.88;;;26.30;99.90;;;;;;5078124;28;20202;-77
2023/08/03 07:00:46;;;;;;;6.63;4.13;;;26.30;99.90;;;;;;5090479;28;20738;-78
2023/08/03 07:03:16;;;;;;;6.57;4.15;;;26.40;99.90;;;;;;5087776;28;20247;-78
2023/08/03 07:05:44;;;;;;;7.18;4.22;;;26.40;99.90;;;;;;5081185;28;20209;-77
2023/08/03 07:08:12;;;;;;;6.55;3.85;;;26.60;99.90;;;;;;5087252;28;20241;-78
2023/08/03 07:10:39;;;;;;;6.72;3.75;;;26.70;99.90;;;;;;5089489;28;20276;-77
2023/08/03 07:13:06;;;;;;;7.82;4.35;;;26.90;99.90;;;;;;5085778;28;20194;-77
2023/08/03 07:15:34;;;;;;;6.43;4.50;;;26.90;99.90;;;;;;5092344;28;20802;-78
2023/08/03 07:18:03;;;;;;;5.57;4.20;;;26.90;99.90;;;;;;5082879;28;20332;-77
2023/08/03 07:20:30;;;;;;;6.32;4.03;;;26.90;99.90;;;;;;5088325;28;20202;-77
2023/08/03 07:22:58;;;;;;;4.38;3.60;;;27.10;99.90;;;;;;5084908;28;20254;-76
2023/08/03 07:25:26;;;;;;;6.07;4.32;;;27.20;99.90;;;;;;5086236;28;20712;-78
2023/08/03 07:27:53;;;;;;;7.22;4.07;;;27.40;99.90;;;;;;5085284;28;20217;-77
2023/08/03 07:30:21;;;;;;;4.57;3.55;;;27.40;99.90;;;;;;5085909;28;20197;-78
2023/08/03 07:32:48;;;;;;;4.03;3.20;;;27.60;99.90;;;;;;5082755;28;20202;-78
2023/08/03 07:35:14;;;;;;;4.55;3.83;;;27.80;99.90;;;;;;5088523;28;20508;-78
2023/08/03 07:37:41;;;;;;;5.22;4.07;;;27.90;99.90;;;;;;5091334;28;20240;-77
2023/08/03 07:40:11;;;;;;;4.20;3.75;;;27.70;99.90;;;;;;5087195;28;20229;-78
2023/08/03 07:42:38;;;;;;;5.78;4.07;;;27.60;99.90;;;;;;5088313;28;23291;-78
2023/08/03 07:45:05;;;;;;;6.70;4.30;;;27.70;99.90;;;;;;5094383;28;20458;-78
2023/08/03 07:47:32;;;;;;;5.43;3.97;;;27.70;99.90;;;;;;5084055;28;20364;-79
2023/08/03 07:50:00;;;;;;;4.60;4.10;;;27.80;99.90;;;;;;5088839;28;20251;-77
2023/08/03 07:52:27;;;;;;;5.20;3.83;;;27.80;99.90;;;;;;5088252;28;20567;-79
2023/08/03 07:54:55;;;;;;;4.15;3.63;;;27.90;99.90;;;;;;5081168;28;20236;-78
2023/08/03 07:57:23;;;;;;;4.85;3.65;;;27.90;99.90;;;;;;5091772;28;20218;-79
2023/08/03 07:59:50;;;;;;;6.90;4.25;;;27.90;99.90;;;;;;5093587;28;20225;-77
2023/08/03 08:02:17;;;;;;;6.18;4.10;;;28.00;99.90;;;;;;5087911;28;20604;-77
2023/08/03 08:04:48;;;;;;;7.40;4.38;;;28.10;99.90;;;;;;5089049;28;20194;-78
2023/08/03 08:07:15;;;;;;;5.57;4.03;;;28.00;99.90;;;;;;5086841;28;20221;-76
2023/08/03 08:09:42;;;;;;;8.68;4.95;;;27.80;99.90;;;;;;5082295;28;20206;-78
2023/08/03 08:12:09;;;;;;;6.22;4.05;;;27.80;99.90;;;;;;5087625;28;20226;-78
2023/08/03 08:14:37;;;;;;;4.78;4.28;;;27.80;99.90;;;;;;5083101;28;20217;-77
2023/08/03 08:17:04;;;;;;;8.68;4.75;;;27.90;99.90;;;;;;5082547;28;20218;-78
2023/08/03 08:19:32;;;;;;;5.93;3.83;;;28.00;99.90;;;;;;5079819;28;20635;-77
2023/08/03 08:21:59;;;;;;;5.43;4.00;;;28.00;99.90;;;;;;5084474;28;20189;-78
2023/08/03 08:24:26;;;;;;;6.97;4.38;;;28.10;99.90;;;;;;5084679;28;20194;-79
2023/08/03 08:26:53;;;;;;;6.80;4.45;;;28.40;99.90;;;;;;5087893;28;20262;-76
2023/08/03 08:29:21;;;;;;;9.80;4.35;;;28.50;99.90;;;;;;5082226;28;20190;-75
2023/08/03 08:31:50;;;;;;;5.75;4.10;;;28.40;99.90;;;;;;5081252;28;20198;-76
2023/08/03 08:34:17;;;;;;;4.75;4.03;;;28.50;99.90;;;;;;5081955;28;20277;-77
2023/08/03 08:36:44;;;;;;;4.97;3.55;;;28.60;99.90;;;;;;5086056;28;20281;-77
2023/08/03 08:39:11;;;;;;;8.02;3.90;;;28.60;99.90;;;;;;5077603;28;20254;-77
2023/08/03 08:41:40;;;;;;;7.43;4.35;;;28.70;99.90;;;;;;5078035;28;20281;-78
2023/08/03 08:44:07;;;;;;;6.75;4.85;;;28.70;99.90;;;;;;5081442;28;20985;-78
2023/08/03 08:46:34;;;;;;;7.15;3.88;;;28.60;99.90;;;;;;5086268;28;20270;-76
2023/08/03 08:49:03;;;;;;;6.63;3.78;;;28.60;99.90;;;;;;5081708;28;20206;-77
2023/08/03 08:51:30;;;;;;;6.75;4.10;;;28.90;99.90;;;;;;5080299;28;20233;-78
2023/08/03 08:53:57;;;;;;;6.85;4.43;;;28.70;99.90;;;;;;5083473;28;20209;-77
2023/08/03 08:56:24;;;;;;;5.10;3.80;;;28.30;99.90;;;;;;5081219;28;20621;-76
2023/08/03 08:58:51;;;;;;;4.82;3.75;;;27.90;99.90;;;;;;5081553;28;20255;-76
2023/08/03 09:01:18;;;;;;;7.20;4.95;;;27.80;99.90;;;;;;5082856;28;20194;-77
2023/08/03 09:03:51;;;;;;;6.88;3.78;;;27.90;99.90;;;;;;5086377;28;20237;-76
2023/08/03 09:06:21;;;;;;;5.75;4.10;;;28.10;99.90;;;;;;5082115;28;20579;-77
2023/08/03 09:08:50;;;;;;;6.22;4.35;;;28.50;99.90;;;;;;5084675;28;20192;-77
2023/08/03 09:11:17;;;;;;;7.45;4.43;;;28.60;99.90;;;;;;5083454;28;20723;-78
2023/08/03 09:13:48;;;;;;;6.10;4.22;;;28.40;99.90;;;;;;5080925;28;20237;-78
2023/08/03 09:16:24;;;;;;;8.60;4.32;;;28.20;99.90;;;;;;5078578;28;20312;-77
2023/08/03 09:18:52;;;;;;;7.25;4.38;;;28.30;99.90;;;;;;5076481;28;20196;-78
2023/08/03 09:21:20;;;;;;;9.10;4.57;;;28.50;99.90;;;;;;5076919;28;20635;-78
2023/08/03 09:23:48;;;;;;;6.68;4.15;;;28.10;99.90;;;;;;5073831;28;20794;-78
2023/08/03 09:26:20;;;;;;;8.65;4.30;;;27.80;99.90;;;;;;5076465;28;20218;-77
2023/08/03 09:28:47;;;;;;;6.10;3.97;;;27.60;99.90;;;;;;5075240;28;20210;-77
2023/08/03 09:31:22;;;;;;;5.43;3.72;;;27.40;99.90;;;;;;5074618;28;20284;-77
2023/08/03 09:33:56;;;;;;;4.78;4.03;;;27.40;99.90;;;;;;5076020;28;21013;-78
2023/08/03 09:36:24;;;;;;;4.80;3.88;;;27.30;99.90;;;;;;5071882;28;20352;-77
2023/08/03 09:38:51;;;;;;;5.75;3.72;;;27.20;99.90;;;;;;5078234;28;20277;-78
2023/08/03 09:41:34;;;;;;;4.82;4.22;;;27.40;99.90;;;;;;5074470;28;20276;-77
2023/08/03 09:44:02;;;;;;;6.82;4.30;;;27.70;99.90;;;;;;5076584;28;20225;-78
2023/08/03 09:46:30;;;;;;;6.88;4.10;;;27.90;99.90;;;;;;5075129;28;20247;-78
2023/08/03 09:48:57;;;;;;;6.10;4.07;;;27.90;99.90;;;;;;5076178;28;20276;-77
2023/08/03 09:51:30;;;;;;;5.72;4.38;;;28.00;99.90;;;;;;5075211;28;20234;-78
2023/08/03 09:54:02;;;;;;;6.35;3.90;;;28.00;99.90;;;;;;5078937;28;20205;-77
2023/08/03 09:56:33;;;;;;;4.30;3.55;;;28.10;99.90;;;;;;5076974;28;20303;-78
2023/08/03 09:59:04;;;;;;;6.50;4.22;;;28.20;99.90;;;;;;5073845;28;20196;-77
2023/08/03 10:01:33;;;;;;;5.72;4.18;;;28.10;99.90;;;;;;5074254;28;20198;-76
2023/08/03 10:04:04;;;;;;;7.00;3.80;;;28.10;99.90;;;;;;5076121;28;20296;-76
2023/08/03 10:06:38;;;;;;;7.25;3.95;;;28.00;99.90;;;;;;5074419;28;20598;-76
2023/08/03 10:09:07;;;;;;;8.10;3.88;;;28.00;99.90;;;;;;5072094;28;20212;-78
2023/08/03 10:11:48;;;;;;;6.03;4.20;;;27.90;99.90;;;;;;5078603;28;20201;-76
2023/08/03 10:14:18;;;;;;;7.70;4.15;;;27.90;99.90;;;;;;5075190;28;20240;-78
2023/08/03 10:16:46;;;;;;;6.15;4.28;;;28.20;99.90;;;;;;5073845;28;20304;-78
2023/08/03 10:19:13;;;;;;;4.55;4.05;;;28.70;99.90;;;;;;5077293;28;20732;-77
2023/08/03 10:21:42;;;;;;;5.68;4.45;;;29.00;99.90;;;;;;5075865;28;20226;-77
2023/08/03 10:24:10;;;;;;;7.18;4.10;;;29.50;99.90;;;;;;5080808;28;20196;-78
2023/08/03 10:26:37;;;;;;;6.47;3.95;;;29.50;99.90;;;;;;5076738;28;20218;-78
2023/08/03 10:29:04;;;;;;;6.82;4.20;;;29.70;99.90;;;;;;5075365;28;20629;-79
2023/08/03 10:31:32;;;;;;;6.78;4.30;;;29.90;99.90;;;;;;5076374;28;20292;-79
2023/08/03 10:34:08;;;;;;;5.45;3.85;;;30.00;99.90;;;;;;5082045;28;20205;-78
2023/08/03 10:36:41;;;;;;;5.72;4.38;;;29.90;99.90;;;;;;5086176;28;20249;-79
2023/08/03 10:39:11;;;;;;;6.57;3.97;;;29.80;99.90;;;;;;5084451;28;20201;-78
2023/08/03 10:41:39;;;;;;;6.22;4.10;;;29.80;99.90;;;;;;5083961;28;20217;-78
2023/08/03 10:44:25;;;;;;;7.20;4.45;;;29.80;99.90;;;;;;5088053;28;20186;-78
2023/08/03 10:46:55;;;;;;;4.88;3.80;;;29.60;99.90;;;;;;5084859;28;20225;-78
2023/08/03 10:49:50;;;;;;;5.25;4.00;;;29.50;99.90;;;;;;5084342;28;20197;-78
2023/08/03 10:52:28;;;;;;;7.32;4.72;;;29.50;99.90;;;;;;5086411;28;20208;-79
2023/08/03 10:54:55;;;;;;;6.30;4.47;;;29.30;99.90;;;;;;5091182;28;20217;-78
2023/08/03 10:57:25;;;;;;;7.80;4.80;;;29.30;99.90;;;;;;5090959;28;20213;-79
2023/08/03 10:59:53;;;;;;;4.30;3.85;;;29.30;99.90;;;;;;5087896;28;20201;-79
2023/08/03 11:02:25;;;;;;;5.63;4.18;;;29.50;99.90;;;;;;5079746;28;20221;-80
2023/08/03 11:04:53;;;;;;;8.23;4.00;;;29.60;99.90;;;;;;5086228;28;20228;-77
2023/08/03 11:07:24;;;;;;;4.80;3.97;;;29.50;99.90;;;;;;5085446;28;20237;-78
2023/08/03 11:09:53;;;;;;;7.30;4.40;;;29.60;99.90;;;;;;5091491;28;20262;-79
2023/08/03 11:12:22;;;;;;;6.68;4.40;;;29.60;99.90;;;;;;5091429;28;20197;-80
2023/08/03 11:14:51;;;;;;;7.10;4.40;;;29.70;99.90;;;;;;5099419;28;20214;-79
2023/08/03 11:17:22;;;;;;;7.80;4.68;;;29.70;99.90;;;;;;5091867;28;20244;-78
2023/08/03 11:19:49;;;;;;;6.15;4.50;;;29.50;99.90;;;;;;5084398;28;20205;-79
2023/08/03 11:22:16;;;;;;;5.20;4.20;;;29.30;99.90;;;;;;5088395;28;20696;-79
2023/08/03 11:24:45;;;;;;;6.88;4.18;;;29.40;99.90;;;;;;5081687;28;20272;-78
2023/08/03 11:27:13;;;;;;;6.68;4.60;;;29.40;99.90;;;;;;5085958;28;20222;-78
2023/08/03 11:29:41;;;;;;;5.90;3.95;;;29.50;99.90;;;;;;5087144;28;20253;-77
2023/08/03 11:32:11;;;;;;;8.15;4.80;;;29.60;99.90;;;;;;5084032;28;20197;-79
2023/08/03 11:34:39;;;;;;;6.32;4.15;;;29.80;99.90;;;;;;5084805;28;20217;-79
2023/08/03 11:37:07;;;;;;;5.03;4.32;;;29.90;99.90;;;;;;5088528;28;20322;-78
2023/08/03 11:39:34;;;;;;;5.03;4.10;;;29.90;99.90;;;;;;5079271;28;20246;-79
2023/08/03 11:42:04;;;;;;;5.88;4.00;;;30.10;99.90;;;;;;5090822;28;20267;-79
2023/08/03 11:44:31;;;;;;;7.47;4.07;;;29.90;99.90;;;;;;5084977;28;20255;-79
2023/08/03 11:47:09;;;;;;;5.28;4.05;;;29.80;99.90;;;;;;5082075;28;20249;-79
2023/08/03 11:49:36;;;;;;;7.18;3.95;;;29.90;99.90;;;;;;5086799;28;20225;-79
2023/08/03 11:52:03;;;;;;;6.70;4.68;;;29.80;99.90;;;;;;5085809;28;20232;-79
2023/08/03 11:54:32;;;;;;;5.88;3.78;;;29.70;99.90;;;;;;5083428;28;20254;-79
2023/08/03 11:58:07;;;;;;;9.07;4.40;;;29.80;99.90;;;;;;5085406;28;20250;-79
2023/08/03 11:59:49;;;;;;;6.15;3.92;;;29.90;99.90;;;;;;5084753;28;20204;-79
2023/08/03 12:02:16;;;;;;;8.60;4.25;;;29.90;99.90;;;;;;5084237;28;20205;-78
2023/08/03 12:04:44;;;;;;;9.20;4.90;;;29.70;99.90;;;;;;5086256;28;20227;-79
2023/08/03 12:07:13;;;;;;;8.23;4.22;;;29.60;99.90;;;;;;5086227;28;20251;-79
2023/08/03 12:09:41;;;;;;;6.95;4.50;;;29.60;99.90;;;;;;5081286;28;20206;-80
2023/08/03 12:12:11;;;;;;;6.32;4.20;;;29.60;99.90;;;;;;5082959;28;20210;-80
2023/08/03 12:14:39;;;;;;;8.07;4.43;;;29.50;99.90;;;;;;5078718;28;20255;-80
2023/08/03 12:17:12;;;;;;;5.57;3.70;;;29.60;99.90;;;;;;5079420;28;21004;-79
2023/08/03 12:19:39;;;;;;;6.97;3.80;;;29.60;99.90;;;;;;5077353;28;20615;-79
2023/08/03 12:22:07;;;;;;;8.48;4.30;;;29.90;99.90;;;;;;5083155;28;20232;-78
2023/08/03 12:24:34;;;;;;;5.32;3.70;;;29.90;99.90;;;;;;5082756;28;20211;-78
2023/08/03 12:27:01;;;;;;;6.72;3.97;;;30.10;99.90;;;;;;5083597;28;20217;-78
2023/08/03 12:29:28;;;;;;;7.20;4.13;;;30.20;99.90;;;;;;5080300;28;20202;-78
2023/08/03 12:31:55;;;;;;;3.92;3.33;;;30.20;99.90;;;;;;5080969;28;20198;-80
2023/08/03 12:34:24;;;;;;;5.38;3.95;;;30.10;99.90;;;;;;5081468;28;20194;-79
2023/08/03 12:36:50;;;;;;;7.43;4.13;;;30.00;99.90;;;;;;5081832;28;20247;-80
2023/08/03 12:39:18;;;;;;;5.82;3.90;;;30.00;99.90;;;;;;5081961;28;20998;-79
2023/08/03 12:41:45;;;;;;;7.63;4.18;;;29.80;99.90;;;;;;5086266;28;20198;-79
2023/08/03 12:44:14;;;;;;;7.65;3.40;;;29.90;99.90;;;;;;5084996;28;20663;-79
2023/08/03 12:46:41;;;;;;;6.15;3.60;;;29.80;99.90;;;;;;5080507;28;20637;-79
2023/08/03 12:49:08;;;;;;;4.53;3.78;;;29.70;99.90;;;;;;5085323;28;20201;-80